LXGB/GIB METAR and TAF weather

Enter ICAO airport designator
Station Type Date Time Source
LXGB METAR 2021/06/25 03:50 UTC NOAA

LXGB 250350Z 07015KT 9999 FEW014 19/17 Q1018 RMK BLU


Station Type Date Time Source
LXGB Decoded METAR 2021/06/25 03:50 UTC NOAA

Gibraltar, Gibraltar (LXGB) 36-09N 005-21W 0M
Jun 24, 2021 - 11:50 PM EDT / 2021.06.25 0350 UTC
Wind: from the ENE (070 degrees) at 17 MPH (15 KT):0
Visibility: greater than 7 mile(s):0
Sky conditions: mostly clear
Temperature: 66 F (19 C)
Dew Point: 62 F (17 C)
Relative Humidity: 88%
Pressure (altimeter): 30.06 in. Hg (1018 hPa)
ob: LXGB 250350Z 07015KT 9999 FEW014 19/17 Q1018 RMK BLU
cycle: 4

Station Type Date Time Source
LXGB TAF 2020/12/29 18:09 UTC NOAA

TAF TAF LXGB 290602Z 2818/2923 CNL

Example: see airport list